Sebewaing, Michigan
Current Conditions -  °F | °C
As of 1:05 AM on Saturday 29 Nov 2014 (Local Time) from KCFS Reporting Station
Overcast Overcast  
Wind Chill: 18°   Ceiling: 3300
Heat Index: 27°   Visibility: 7mi
Dew Point: 23°   Wind: 8mph
Humidity: 86%   Direction: 140°SE
Pressure: 30.03"   Gusts: NA
Location:  43.73°N, 83.45°W
Report Text: KCFS 290605Z AUTO 14007KT 7SM OVC033 M03/M05 A3003 RMK AO2
Loading
Personal Weather Stations






























Interactive Weather Map New forecast layout! Learn more

10-Day Weather Forecast

Advertisements
Track Severe Weather on mobile